Galva, Iowa
Current Conditions -  °F | °C
As of 9:55 PM on Wednesday 22 Oct 2014 (Local Time) from KSLB Reporting Station
Haze Haze  
Wind Chill: 57°   Ceiling: 3200
Heat Index: 57°   Visibility: 6mi
Dew Point: 57°   Wind: 10mph
Humidity: 100%   Direction: 150°SSE
Pressure: 30.08"   Gusts: NA
Location:  42.51°N, 95.42°W
Report Text: KSLB 230255Z AUTO 15009KT 6SM BR FEW003 BKN032 OVC095 14/14 A3008 RMK AO2 P0008
Loading
Personal Weather Stations






























Interactive Weather Map
Tropical Storm Tracking
New forecast layout! Learn more

10-Day Weather Forecast

Advertisements
Track Severe Weather on mobile